METAR Data
IDs: Format: Raw Decoded Include TAF

Data at: 1357 UTC 10 Aug 2022

KNUQ 101330Z AUTO 00000KT 9SM SCT014 SCT026 16/12 A3006 RMK AO2
KNUQ 101315Z AUTO 00000KT 9SM BKN014 OVC026 16/12 A3005 RMK AO2
KNUQ 101250Z AUTO 00000KT 10SM BKN012 BKN028 16/12 A3004 RMK AO2
KNUQ 101235Z AUTO 00000KT 10SM 16/12 A3004 RMK AO2
KNUQ 101215Z AUTO 00000KT 10SM BKN012 16/12 A3004 RMK AO2
KNUQ 101155Z AUTO 00000KT 10SM BKN012 16/12 A3003 RMK AO2
KNUQ 101135Z AUTO 00000KT 10SM BKN012 16/12 A3003 RMK AO2
KNUQ 101115Z AUTO 00000KT 10SM BKN013 16/12 A3003 RMK AO2
KNUQ 101055Z AUTO 00000KT 10SM BKN015 16/12 A3003 RMK AO2
KNUQ 101035Z AUTO 00000KT 10SM BKN017 16/12 A3003 RMK AO2
KNUQ 101015Z AUTO 00000KT 10SM OVC017 17/13 A3003 RMK AO2
KNUQ 100955Z AUTO 00000KT 10SM OVC014 17/13 A3003 RMK AO2
KNUQ 100935Z AUTO 00000KT 10SM OVC017 17/13 A3003 RMK AO2
KNUQ 100915Z AUTO 00000KT 10SM OVC017 17/13 A3004 RMK AO2
KNUQ 100855Z AUTO 00000KT 10SM OVC018 17/13 A3003 RMK AO2
KNUQ 100835Z AUTO 00000KT 10SM 18/14 A3004 RMK AO2
KNUQ 100810Z AUTO 00000KT 10SM OVC013 18/14 A3004 RMK AO2
KNUQ 100755Z AUTO 00000KT 10SM OVC013 18/14 A3004 RMK AO2
KNUQ 100735Z AUTO 00000KT 10SM 18/13 A3003 RMK AO2
KNUQ 100710Z AUTO 00000KT 10SM 18/14 A3003 RMK AO2
KNUQ 100655Z AUTO 00000KT 10SM 18/14 A3003 RMK AO2
KNUQ 100635Z AUTO 00000KT 10SM SCT013 BKN020 BKN035 18/14 A3003 RMK AO2
KNUQ 100615Z AUTO 35003KT 10SM BKN013 BKN019 BKN023 18/14 A3003 RMK AO2
KNUQ 100555Z AUTO 00000KT 10SM BKN013 OVC019 18/13 A3003 RMK AO2
KNUQ 100535Z AUTO 00000KT 10SM 18/13 A3003 RMK AO2
KNUQ 100515Z AUTO 32006KT 10SM 19/13 A3003 RMK AO2
KNUQ 100455Z AUTO 31004KT 10SM SCT017 BKN023 OVC033 19/13 A3002 RMK AO2
KNUQ 100435Z AUTO 31005KT 10SM 19/13 A3001 RMK AO2
KNUQ 100415Z AUTO 33006KT 10SM 19/14 A3000 RMK AO2
KNUQ 100355Z AUTO 32006KT 10SM 19/13 A2999 RMK AO2
KNUQ 100335Z AUTO 33008KT 10SM FEW015 FEW022 SCT031 20/13 A2999 RMK AO2
KNUQ 100315Z AUTO 31007KT 10SM CLR 20/13 A2999 RMK AO2
KNUQ 100255Z AUTO 31008G14KT 10SM CLR 21/13 A2999 RMK AO2
KNUQ 100235Z AUTO 33012KT 10SM CLR 21/13 A2998 RMK AO2
KNUQ 100215Z AUTO 33010KT 10SM CLR 22/13 A2997 RMK AO2
KNUQ 100155Z AUTO 34013G18KT 10SM CLR 22/13 A2997 RMK AO2
KNUQ 100135Z AUTO 34015KT 10SM CLR 23/13 A2996 RMK AO2
KNUQ 100115Z AUTO 34016KT 10SM CLR 23/13 A2996 RMK AO2
KNUQ 100055Z AUTO 36019KT 10SM CLR 23/14 A2996 RMK AO2
KNUQ 100030Z AUTO 35020KT 10SM CLR 23/14 A2996 RMK AO2
KNUQ 100015Z AUTO 35020KT 10SM CLR 23/15 A2996 RMK AO2
KNUQ 092355Z AUTO 33016G25KT 10SM CLR 23/14 A2995 RMK AO2
KNUQ 092335Z AUTO 34014G21KT 10SM CLR 24/14 A2995 RMK AO2
KNUQ 092315Z AUTO 34012G19KT 10SM CLR 24/14 A2996 RMK AO2 LTG DSNT NE AND S
KNUQ 092250Z AUTO 33015KT 10SM CLR 23/14 A2996 RMK AO2
KNUQ 092235Z AUTO 34014G20KT 10SM CLR 24/14 A2996 RMK AO2 LTG DSNT E
KNUQ 092210Z AUTO 34016G21KT 10SM CLR 24/14 A2997 RMK AO2
KNUQ 092155Z AUTO 35015KT 10SM CLR 24/13 A2997 RMK AO2
KNUQ 092135Z AUTO 34013KT 10SM CLR 24/14 A2997 RMK AO2
KNUQ 092115Z AUTO 35011KT 10SM CLR 24/11 A2998 RMK AO2
KNUQ 092055Z AUTO 35011KT 10SM CLR 24/12 A2999 RMK AO2 LTG DSNT E AND S
KNUQ 092030Z AUTO 34013KT 10SM CLR 23/14 A2999 RMK AO2
KNUQ 092015Z AUTO 35013KT 10SM CLR 23/14 A2999 RMK AO2
KNUQ 091955Z AUTO 36010KT 10SM CLR 23/14 A3000 RMK AO2
KNUQ 091935Z AUTO 35011KT 10SM CLR 23/14 A3000 RMK AO2
KNUQ 091915Z AUTO 36008KT 310V030 10SM CLR 23/14 A3000 RMK AO2
KNUQ 091855Z AUTO 02007KT 10SM CLR 22/14 A3001 RMK AO2
KNUQ 091835Z AUTO 35005KT 10SM CLR 22/13 A3001 RMK AO2
KNUQ 091810Z AUTO VRB04KT 10SM CLR 21/14 A3001 RMK AO2
KNUQ 091750Z AUTO 03005KT 10SM CLR 21/13 A3001 RMK AO2
KNUQ 091735Z AUTO VRB05KT 10SM CLR 21/13 A3001 RMK AO2
KNUQ 091715Z AUTO 03005KT 10SM CLR 20/13 A3001 RMK AO2
KNUQ 091655Z AUTO 00000KT 10SM CLR 20/13 A3001 RMK AO2
KNUQ 091635Z AUTO 00000KT 10SM CLR 20/13 A3001 RMK AO2
KNUQ 091615Z AUTO 00000KT 10SM FEW020 20/13 A3002 RMK AO2
KNUQ 091555Z AUTO 00000KT 8SM BKN020 19/13 A3002 RMK AO2
KNUQ 091535Z AUTO VRB04KT 10SM OVC019 18/13 A3001 RMK AO2
KNUQ 091510Z AUTO 00000KT 10SM OVC020 18/13 A3001 RMK AO2
KNUQ 091455Z AUTO 10SM OVC020 18/13 A3001 RMK AO2
KNUQ 091435Z AUTO 00000KT 10SM OVC021 17/13 A3001 RMK AO2
KNUQ 091415Z AUTO 00000KT 10SM BKN021 16/13 A3001 RMK AO2
KNUQ 091355Z AUTO 00000KT 6SM HZ CLR 15/12 A3001 RMK AO2
KNUQ 091335Z AUTO 00000KT 8SM FEW017 SCT022 15/12 A3000 RMK AO2
KNUQ 091315Z AUTO 00000KT 9SM BKN016 BKN022 15/12 A3000 RMK AO2
KNUQ 091255Z AUTO 25003KT 10SM 15/12 A2999 RMK AO2
KNUQ 091230Z AUTO 00000KT 10SM OVC014 16/13 A2998 RMK AO2
KNUQ 091210Z AUTO 00000KT 10SM OVC014 16/13 A2998 RMK AO2
KNUQ 091155Z AUTO 00000KT 10SM OVC015 16/13 A2998 RMK AO2
KNUQ 091135Z AUTO 00000KT 10SM OVC016 16/13 A2998 RMK AO2
KNUQ 091115Z AUTO 00000KT 10SM OVC014 16/12 A2998 RMK AO2
KNUQ 091055Z AUTO 00000KT 10SM 16/13 A2998 RMK AO2
KNUQ 091035Z AUTO 00000KT 10SM 16/13 A2998 RMK AO2
KNUQ 091015Z AUTO 01003KT 10SM OVC013 16/13 A2998 RMK AO2
KNUQ 090950Z AUTO 00000KT 10SM OVC014 16/13 A2998 RMK AO2
KNUQ 090935Z AUTO 00000KT 10SM OVC014 17/12 A2998 RMK AO2
KNUQ 090915Z AUTO 27003KT 10SM OVC014 17/12 A2998 RMK AO2
KNUQ 090855Z AUTO 00000KT 10SM OVC014 17/12 A2998 RMK AO2
KNUQ 090835Z AUTO 33003KT 10SM OVC015 17/12 A2998 RMK AO2
KNUQ 090815Z AUTO 00000KT 10SM OVC014 17/13 A2998 RMK AO2
KNUQ 090750Z AUTO 31004KT 10SM OVC014 17/13 A2999 RMK AO2
KNUQ 090735Z AUTO 34005KT 10SM OVC014 18/13 A2999 RMK AO2
KNUQ 090715Z AUTO 34005KT 10SM OVC014 18/13 A2999 RMK AO2
KNUQ 090650Z AUTO 34005KT 10SM OVC014 18/13 A2998 RMK AO2
KNUQ 090635Z AUTO 34005KT 10SM OVC014 18/12 A2998 RMK AO2
KNUQ 090610Z AUTO 01005KT 10SM OVC014 18/13 A2999 RMK AO2
KNUQ 090550Z AUTO 35004KT 10SM OVC015 18/13 A2999 RMK AO2
KNUQ 090535Z AUTO 01005KT 10SM OVC015 18/13 A2999 RMK AO2
KNUQ 090515Z AUTO 36006KT 10SM OVC014 18/13 A2999 RMK AO2
KNUQ 090455Z AUTO 01005KT 10SM OVC014 18/13 A2999 RMK AO2
KNUQ 090430Z AUTO 00000KT 10SM OVC015 19/13 A2998 RMK AO2
KNUQ 090415Z AUTO 34006KT 10SM BKN014 OVC019 19/13 A2997 RMK AO2
KNUQ 090355Z AUTO 34007KT 10SM OVC015 19/13 A2997 RMK AO2
KNUQ 090335Z AUTO 34008KT 10SM BKN015 BKN022 20/13 A2997 RMK AO2
KNUQ 090315Z AUTO 35008KT 10SM CLR 20/13 A2996 RMK AO2
KNUQ 090255Z AUTO 34008KT 10SM CLR 21/13 A2996 RMK AO2
KNUQ 090235Z AUTO 35009KT 10SM CLR 22/13 A2995 RMK AO2
KNUQ 090215Z AUTO 35010KT 10SM CLR 22/13 A2994 RMK AO2